Time;durP1;ratioP1;P1;durP2;ratioP2;P2;SDS_P1;SDS_P2;PMS_P1;PMS_P2;Temp;Humidity;BMP_temperature;BMP_pressure;BME280_temperature;BME280_humidity;BME280_pressure;Samples;Min_cycle;Max_cycle;Signal;HPM_P1;HPM_P2
2023/04/10 00:00:09;;;;;;;1.23;1.23;;;;;;;6.56;66.33;100301.31;4414841;32;33647;-83
2023/04/10 00:02:38;;;;;;;1.48;1.37;;;;;;;6.66;66.25;100299.72;4410016;32;33606;-81
2023/04/10 00:05:08;;;;;;;1.48;1.37;;;;;;;6.46;66.62;100302.06;4405153;32;33948;-83
2023/04/10 00:07:37;;;;;;;1.92;1.83;;;;;;;6.65;66.34;100290.28;4412358;32;34661;-83
2023/04/10 00:10:06;;;;;;;2.00;1.73;;;;;;;6.70;66.36;100292.06;4416134;32;34610;-81
2023/04/10 00:12:36;;;;;;;4.62;2.25;;;;;;;6.52;66.64;100291.81;4415069;32;33391;-83
2023/04/10 00:15:07;;;;;;;2.22;2.08;;;;;;;6.45;67.28;100280.59;4414960;32;33745;-84
2023/04/10 00:17:36;;;;;;;2.40;2.20;;;;;;;6.68;66.39;100280.84;4420145;32;33911;-83
2023/04/10 00:20:06;;;;;;;2.05;1.85;;;;;;;6.79;66.08;100284.44;4414885;32;33592;-84
2023/04/10 00:22:34;;;;;;;1.50;1.40;;;;;;;6.63;66.62;100277.34;4413150;32;33282;-84
2023/04/10 00:25:05;;;;;;;2.00;1.83;;;;;;;6.56;66.97;100268.69;4412509;32;33673;-82
2023/04/10 00:27:34;;;;;;;1.23;1.23;;;;;;;6.62;66.76;100268.75;4414510;32;34323;-84
2023/04/10 00:30:02;;;;;;;2.17;2.00;;;;;;;6.66;66.94;100272.22;4415575;32;33528;-84
2023/04/10 00:32:33;;;;;;;2.40;2.22;;;;;;;6.78;66.18;100269.78;4411594;32;34690;-81
2023/04/10 00:35:02;;;;;;;1.23;1.20;;;;;;;6.64;66.84;100268.75;4403253;32;33313;-82
2023/04/10 00:37:31;;;;;;;3.00;2.37;;;;;;;6.70;66.33;100266.28;4406458;32;34773;-81
2023/04/10 00:40:00;;;;;;;3.45;2.05;;;;;;;6.60;66.54;100269.59;4417095;32;33765;-82
2023/04/10 00:42:29;;;;;;;2.55;2.12;;;;;;;6.54;67.05;100272.09;4411048;32;33879;-82
2023/04/10 00:44:58;;;;;;;1.40;1.30;;;;;;;6.45;67.00;100277.13;4413666;32;33823;-81
2023/04/10 00:47:27;;;;;;;1.58;1.37;;;;;;;6.50;67.02;100265.16;4408166;32;34384;-84
2023/04/10 00:50:00;;;;;;;2.25;1.87;;;;;;;6.68;66.14;100270.53;4413991;32;33798;-82
2023/04/10 00:52:29;;;;;;;1.73;1.35;;;;;;;6.62;66.38;100266.19;4419907;32;33908;-81
2023/04/10 00:54:58;;;;;;;1.20;1.20;;;;;;;6.40;67.17;100262.47;4413756;32;33606;-83
2023/04/10 00:57:27;;;;;;;3.75;2.17;;;;;;;6.47;67.29;100260.81;4414227;32;34033;-79
2023/04/10 00:59:56;;;;;;;1.75;1.65;;;;;;;6.35;67.32;100260.66;4413019;32;33621;-82
2023/04/10 01:02:25;;;;;;;1.58;1.48;;;;;;;6.27;67.79;100268.31;4418066;32;34015;-81
2023/04/10 01:04:54;;;;;;;2.53;1.75;;;;;;;6.37;67.39;100266.72;4407043;32;33078;-83
2023/04/10 01:07:33;;;;;;;1.65;1.48;;;;;;;6.42;67.08;100265.06;4413491;32;35650;-80
2023/04/10 01:10:06;;;;;;;2.55;1.67;;;;;;;6.36;67.11;100254.69;4415464;32;33538;-81
2023/04/10 01:12:44;;;;;;;2.40;2.20;;;;;;;6.00;68.38;100261.06;4414895;32;33162;-82
2023/04/10 01:15:15;;;;;;;1.98;1.87;;;;;;;6.13;68.07;100257.81;4419724;32;33175;-83
2023/04/10 01:17:50;;;;;;;1.92;1.50;;;;;;;6.08;68.30;100254.28;4415108;32;33702;-82
2023/04/10 01:20:21;;;;;;;2.70;1.95;;;;;;;6.12;68.38;100250.94;4415658;32;33345;-81
2023/04/10 01:23:08;;;;;;;1.70;1.60;;;;;;;6.33;67.67;100250.37;4415321;32;34148;-81
2023/04/10 01:25:43;;;;;;;1.12;1.12;;;;;;;6.26;68.32;100251.13;4414983;32;33366;-81
2023/04/10 01:28:48;;;;;;;1.30;1.20;;;;;;;6.35;68.09;100258.09;4420358;32;33538;-81
2023/04/10 01:31:20;;;;;;;3.08;2.12;;;;;;;6.26;68.52;100261.44;4409816;32;33283;-83
2023/04/10 01:33:51;;;;;;;2.08;1.90;;;;;;;6.20;68.95;100251.88;4414338;32;32745;-83
2023/04/10 01:36:25;;;;;;;2.58;2.00;;;;;;;6.34;68.60;100252.09;4410066;32;33427;-83
2023/04/10 01:38:55;;;;;;;2.58;2.37;;;;;;;6.43;68.46;100243.63;4411845;32;33656;-82
2023/04/10 01:41:25;;;;;;;1.87;1.77;;;;;;;6.54;67.85;100246.31;4412418;32;34235;-84
2023/04/10 01:43:55;;;;;;;1.75;1.33;;;;;;;6.57;67.72;100241.19;4415020;32;33370;-80
2023/04/10 01:46:25;;;;;;;2.12;1.92;;;;;;;6.66;66.98;100241.28;4409414;32;34510;-85
2023/04/10 01:48:55;;;;;;;1.42;1.33;;;;;;;6.78;66.36;100241.44;4409585;32;33654;-85
2023/04/10 01:51:25;;;;;;;1.90;1.65;;;;;;;6.73;66.43;100237.94;4415013;32;33288;-83
2023/04/10 01:53:54;;;;;;;1.45;1.35;;;;;;;6.47;67.36;100244.50;4419123;32;33614;-82
2023/04/10 01:56:23;;;;;;;2.45;1.90;;;;;;;6.83;65.87;100244.06;4410920;32;34013;-82
2023/04/10 01:58:52;;;;;;;1.87;1.60;;;;;;;6.65;66.30;100247.31;4412008;32;34859;-82
2023/04/10 02:01:22;;;;;;;2.08;1.98;;;;;;;6.67;66.07;100240.47;4403001;32;34109;-82
2023/04/10 02:03:58;;;;;;;2.00;1.90;;;;;;;6.82;65.91;100239.75;4410770;32;34050;-84
2023/04/10 02:06:32;;;;;;;2.50;1.87;;;;;;;6.57;66.78;100238.59;4416531;32;33919;-84
2023/04/10 02:09:09;;;;;;;1.15;1.15;;;;;;;6.63;66.50;100239.53;4414077;32;34333;-84
2023/04/10 02:11:42;;;;;;;1.92;1.75;;;;;;;6.73;66.16;100240.50;4408728;32;34278;-85
2023/04/10 02:14:11;;;;;;;1.65;1.52;;;;;;;6.70;66.12;100247.37;4413602;32;33385;-81
2023/04/10 02:16:43;;;;;;;1.27;1.17;;;;;;;6.56;66.53;100240.31;4414809;32;33385;-84
2023/04/10 02:19:11;;;;;;;;;;;;;;;6.44;67.10;100244.47;4419524;32;33778;-81
2023/04/10 02:21:42;;;;;;;1.42;1.33;;;;;;;6.50;66.42;100250.56;4412050;32;33995;-81
2023/04/10 02:24:11;;;;;;;2.53;2.25;;;;;;;6.39;66.80;100244.41;4410728;32;32464;-84
2023/04/10 02:26:46;;;;;;;4.05;2.12;;;;;;;6.53;66.66;100247.16;4411565;32;34628;-83
2023/04/10 02:29:15;;;;;;;1.45;1.35;;;;;;;6.34;67.13;100243.50;4413503;32;34028;-83
2023/04/10 02:31:46;;;;;;;2.15;1.60;;;;;;;6.43;67.09;100246.19;4413534;32;34209;-83
2023/04/10 02:34:15;;;;;;;1.12;1.12;;;;;;;6.41;66.98;100241.00;4413831;32;33626;-84
2023/04/10 02:36:44;;;;;;;1.50;1.40;;;;;;;6.33;67.12;100242.62;4412964;32;34363;-83
2023/04/10 02:39:13;;;;;;;1.98;1.55;;;;;;;6.32;66.87;100235.72;4414189;32;33895;-83
2023/04/10 02:41:45;;;;;;;1.62;1.52;;;;;;;6.35;67.16;100233.19;4419482;32;34660;-81
2023/04/10 02:44:14;;;;;;;1.62;1.52;;;;;;;6.58;66.32;100228.31;4414658;32;32982;-82
2023/04/10 02:46:43;;;;;;;2.00;1.75;;;;;;;6.67;66.09;100227.56;4413107;32;34520;-81
2023/04/10 02:49:13;;;;;;;2.00;1.80;;;;;;;6.60;66.25;100224.06;4414149;32;32339;-81
2023/04/10 02:51:42;;;;;;;1.70;1.60;;;;;;;6.48;66.56;100221.34;4404800;32;32948;-83
2023/04/10 02:54:11;;;;;;;1.75;1.65;;;;;;;6.48;66.53;100212.75;4394488;32;31932;-81
2023/04/10 02:56:41;;;;;;;1.52;1.42;;;;;;;6.35;67.23;100214.28;4414576;32;34494;-83
2023/04/10 02:59:11;;;;;;;1.00;1.00;;;;;;;6.40;67.19;100221.25;4413916;32;34092;-82
2023/04/10 03:01:39;;;;;;;2.30;1.85;;;;;;;6.49;66.83;100217.91;4417042;32;33531;-84
2023/04/10 03:04:08;;;;;;;2.60;1.87;;;;;;;6.17;67.99;100214.94;4419600;32;33505;-84
2023/04/10 03:06:39;;;;;;;1.40;1.30;;;;;;;6.34;67.53;100217.72;4413075;32;33221;-83
2023/04/10 03:09:08;;;;;;;1.90;1.58;;;;;;;6.24;67.34;100215.88;4413632;32;33285;-84
2023/04/10 03:11:37;;;;;;;1.83;1.73;;;;;;;6.25;67.55;100210.72;4414133;32;34194;-81
2023/04/10 03:14:08;;;;;;;1.90;1.80;;;;;;;6.18;67.57;100216.66;4419911;32;34791;-84
2023/04/10 03:16:37;;;;;;;1.97;1.87;;;;;;;6.27;67.07;100218.50;4414604;32;33817;-84
2023/04/10 03:19:06;;;;;;;2.12;1.95;;;;;;;5.95;67.96;100222.38;4417605;32;33524;-81
2023/04/10 03:21:35;;;;;;;1.70;1.60;;;;;;;6.04;67.61;100223.31;4416007;32;34525;-84
2023/04/10 03:24:06;;;;;;;1.77;1.65;;;;;;;6.11;67.21;100213.16;4421781;32;33107;-84
2023/04/10 03:26:35;;;;;;;1.77;1.52;;;;;;;6.10;67.23;100218.28;4417967;32;34447;-81
2023/04/10 03:29:04;;;;;;;1.80;1.70;;;;;;;5.85;68.05;100215.31;4415135;32;34688;-81
2023/04/10 03:31:34;;;;;;;1.40;1.30;;;;;;;6.04;67.59;100213.03;4412051;32;34269;-84
2023/04/10 03:34:03;;;;;;;1.60;1.50;;;;;;;6.14;67.37;100208.03;4414526;32;33922;-83
2023/04/10 03:36:32;;;;;;;1.42;1.33;;;;;;;5.95;68.16;100217.22;4411749;32;34173;-81
2023/04/10 03:39:01;;;;;;;1.20;1.20;;;;;;;6.14;67.55;100210.59;4415501;32;33935;-81
2023/04/10 03:41:31;;;;;;;1.73;1.62;;;;;;;5.98;68.25;100216.37;4402097;32;34455;-82
2023/04/10 03:44:02;;;;;;;1.60;1.50;;;;;;;6.02;67.86;100220.75;4400859;32;32783;-82
2023/04/10 03:46:33;;;;;;;2.03;1.83;;;;;;;6.02;67.81;100215.59;4406206;32;33884;-82
2023/04/10 03:49:02;;;;;;;1.48;1.40;;;;;;;6.05;67.90;100227.66;4409276;32;34729;-81
2023/04/10 03:51:31;;;;;;;1.60;1.50;;;;;;;6.10;67.60;100224.28;4400716;32;33948;-84
2023/04/10 03:54:00;;;;;;;2.30;2.17;;;;;;;6.17;67.10;100222.66;4400586;32;34001;-82
2023/04/10 03:56:29;;;;;;;1.65;1.55;;;;;;;5.99;67.63;100225.84;4412654;32;33925;-83
2023/04/10 03:59:00;;;;;;;1.65;1.55;;;;;;;6.14;67.27;100232.94;4421118;32;33742;-82
2023/04/10 04:01:29;;;;;;;2.37;2.17;;;;;;;6.07;67.42;100228.53;4416277;32;33611;-83
2023/04/10 04:03:59;;;;;;;1.42;1.33;;;;;;;6.03;67.56;100231.91;4416035;32;33180;-80
2023/04/10 04:06:30;;;;;;;1.87;1.77;;;;;;;6.16;67.11;100228.62;4405298;32;34474;-81
2023/04/10 04:09:00;;;;;;;1.98;1.75;;;;;;;5.87;68.09;100228.19;4419562;32;34767;-82
2023/04/10 04:11:30;;;;;;;1.60;1.50;;;;;;;5.67;68.63;100231.34;4415787;32;33386;-84
2023/04/10 04:14:00;;;;;;;1.95;1.85;;;;;;;5.67;68.76;100238.22;4415740;32;32867;-82
2023/04/10 04:16:29;;;;;;;1.67;1.57;;;;;;;6.00;67.47;100227.59;4416185;32;33047;-82
2023/04/10 04:18:59;;;;;;;2.30;1.80;;;;;;;5.88;68.21;100235.97;4414221;32;33643;-81
2023/04/10 04:21:28;;;;;;;2.22;2.03;;;;;;;5.86;68.42;100237.66;4420276;32;33402;-83
2023/04/10 04:23:57;;;;;;;1.77;1.67;;;;;;;6.09;67.68;100234.56;4414673;32;33695;-81
2023/04/10 04:26:26;;;;;;;1.80;1.62;;;;;;;6.03;68.08;100239.63;4414495;32;34072;-81
2023/04/10 04:28:57;;;;;;;1.42;1.33;;;;;;;5.96;68.54;100247.25;4412777;32;33059;-82
2023/04/10 04:31:31;;;;;;;2.03;1.92;;;;;;;5.96;68.94;100241.25;4405469;32;33270;-83
2023/04/10 04:34:01;;;;;;;1.40;1.30;;;;;;;5.86;69.21;100240.22;4412939;32;34331;-84
2023/04/10 04:36:31;;;;;;;1.85;1.62;;;;;;;5.92;69.13;100240.31;4414136;32;34393;-82
2023/04/10 04:39:00;;;;;;;1.50;1.40;;;;;;;5.98;68.87;100243.00;4410321;32;34493;-85
2023/04/10 04:41:31;;;;;;;1.73;1.62;;;;;;;6.07;68.78;100246.56;4409564;32;34166;-82
2023/04/10 04:44:01;;;;;;;;;;;;;;;6.18;68.48;100240.69;4420482;32;32511;-83
2023/04/10 04:46:31;;;;;;;1.37;1.27;;;;;;;6.16;68.54;100252.72;4411714;32;34624;-80
2023/04/10 04:49:00;;;;;;;1.62;1.37;;;;;;;6.15;68.57;100256.12;4413191;32;34732;-82
2023/04/10 04:51:29;;;;;;;1.42;1.33;;;;;;;6.14;68.79;100256.12;4415690;32;33504;-84
2023/04/10 04:53:59;;;;;;;2.53;2.20;;;;;;;6.25;68.44;100253.66;4420908;32;33907;-84
2023/04/10 04:56:28;;;;;;;2.37;2.12;;;;;;;6.31;68.27;100252.03;4415543;32;34707;-82
2023/04/10 04:58:58;;;;;;;2.00;1.87;;;;;;;6.41;67.91;100253.87;4415021;32;33870;-83
2023/04/10 05:01:27;;;;;;;1.10;1.10;;;;;;;6.33;68.21;100246.91;4415533;32;33966;-84
2023/04/10 05:03:58;;;;;;;1.20;1.20;;;;;;;6.14;68.70;100250.97;4402388;32;32817;-83
2023/04/10 05:06:30;;;;;;;1.17;1.15;;;;;;;6.25;68.29;100253.66;4421165;32;33441;-81
2023/04/10 05:09:01;;;;;;;1.77;1.67;;;;;;;6.39;67.65;100265.03;4415071;32;34246;-81
2023/04/10 05:11:30;;;;;;;2.15;2.03;;;;;;;6.57;66.90;100261.81;4415673;32;34177;-84
2023/04/10 05:13:59;;;;;;;1.75;1.65;;;;;;;6.34;68.17;100275.28;4415554;32;33746;-81
2023/04/10 05:16:29;;;;;;;1.52;1.42;;;;;;;6.74;66.90;100269.75;4420883;32;33358;-84
2023/04/10 05:19:01;;;;;;;1.65;1.50;;;;;;;6.94;65.93;100273.41;4410258;32;33574;-82
2023/04/10 05:21:38;;;;;;;1.23;1.23;;;;;;;6.59;66.92;100273.00;4412788;32;34759;-84
2023/04/10 05:24:08;;;;;;;1.77;1.67;;;;;;;6.75;66.38;100271.50;4415199;32;33885;-82
2023/04/10 05:26:37;;;;;;;1.50;1.40;;;;;;;6.63;67.14;100267.91;4415472;32;33421;-81
2023/04/10 05:29:06;;;;;;;1.27;1.20;;;;;;;6.59;67.65;100268.72;4420399;32;34307;-82
2023/04/10 05:31:35;;;;;;;3.65;2.10;;;;;;;6.83;67.13;100269.84;4416216;32;33961;-85
2023/04/10 05:34:06;;;;;;;2.67;1.60;;;;;;;6.76;67.51;100268.06;4415639;32;32905;-81
2023/04/10 05:36:36;;;;;;;1.67;1.58;;;;;;;7.19;66.52;100268.50;4414929;32;33832;-81
2023/04/10 05:39:05;;;;;;;1.40;1.30;;;;;;;7.20;66.83;100276.28;4420662;32;34277;-82
2023/04/10 05:41:34;;;;;;;3.03;2.00;;;;;;;7.67;64.98;100278.41;4410617;32;33699;-82
2023/04/10 05:44:04;;;;;;;3.85;1.62;;;;;;;7.54;65.29;100279.16;4411744;32;33482;-83
2023/04/10 05:46:33;;;;;;;2.47;2.03;;;;;;;7.58;65.36;100280.91;4411084;32;33182;-82
2023/04/10 05:49:06;;;;;;;1.42;1.33;;;;;;;7.41;66.08;100282.47;4409916;32;33681;-81
2023/04/10 05:51:36;;;;;;;3.03;2.03;;;;;;;7.16;67.24;100273.66;4409643;32;33567;-81
2023/04/10 05:54:05;;;;;;;3.22;2.72;;;;;;;7.44;66.97;100279.91;4413526;32;33976;-82
2023/04/10 05:56:39;;;;;;;3.72;1.27;;;;;;;7.47;67.14;100280.81;4405644;32;33366;-84
2023/04/10 05:59:07;;;;;;;4.80;2.50;;;;;;;7.56;66.51;100280.03;4414923;32;34751;-82
2023/04/10 06:01:39;;;;;;;2.17;1.40;;;;;;;7.57;67.24;100281.78;4419691;32;33684;-82
2023/04/10 06:04:09;;;;;;;1.55;1.45;;;;;;;7.66;67.06;100279.28;4414329;32;33668;-83
2023/04/10 06:06:39;;;;;;;4.45;2.10;;;;;;;7.83;67.11;100270.78;4414153;32;33037;-82
2023/04/10 06:09:08;;;;;;;4.55;2.12;;;;;;;7.79;66.78;100269.88;4413142;32;34463;-82
2023/04/10 06:11:37;;;;;;;1.48;1.37;;;;;;;7.81;67.62;100280.25;4418580;32;33810;-85
2023/04/10 06:14:08;;;;;;;;;;;;;;;8.01;67.30;100281.25;4421660;32;34117;-83
2023/04/10 06:16:37;;;;;;;2.33;2.08;;;;;;;8.24;66.92;100276.22;4412057;32;33557;-84
2023/04/10 06:19:06;;;;;;;2.53;1.95;;;;;;;8.39;65.99;100279.75;4411829;32;34607;-84
2023/04/10 06:21:38;;;;;;;2.15;1.90;;;;;;;8.33;66.08;100281.41;4412137;32;33609;-85
2023/04/10 06:24:07;;;;;;;1.90;1.43;;;;;;;8.29;65.99;100281.44;4419732;32;32865;-82
2023/04/10 06:26:37;;;;;;;1.62;1.50;;;;;;;8.34;66.14;100278.00;4413077;32;34333;-82
2023/04/10 06:29:05;;;;;;;1.50;1.40;;;;;;;8.66;65.33;100276.44;4404031;32;34057;-82
2023/04/10 06:31:35;;;;;;;2.50;1.77;;;;;;;8.71;65.70;100279.91;4406501;32;34569;-83
2023/04/10 06:34:04;;;;;;;1.65;1.55;;;;;;;8.77;65.41;100277.37;4402263;32;173735;-84
2023/04/10 06:36:33;;;;;;;2.62;1.52;;;;;;;8.86;65.16;100276.53;4417699;32;34572;-82
2023/04/10 06:39:05;;;;;;;3.58;1.73;;;;;;;8.96;64.55;100275.69;4412297;32;33498;-81
2023/04/10 06:41:34;;;;;;;;;;;;;;;8.96;64.98;100283.44;4411391;32;33774;-85
2023/04/10 06:44:05;;;;;;;3.22;1.85;;;;;;;8.92;64.35;100277.41;4411714;32;33179;-82
2023/04/10 06:46:34;;;;;;;2.25;1.85;;;;;;;8.96;64.45;100273.97;4418223;32;33888;-82
2023/04/10 06:49:03;;;;;;;2.30;2.10;;;;;;;9.16;64.09;100271.44;4413563;32;34289;-83
2023/04/10 06:51:32;;;;;;;2.47;2.05;;;;;;;9.35;63.02;100271.44;4410005;32;33765;-81
2023/04/10 06:54:00;;;;;;;2.50;1.62;;;;;;;9.24;63.19;100271.44;4411883;32;34225;-86
2023/04/10 06:56:31;;;;;;;2.25;1.52;;;;;;;9.53;62.96;100275.78;4414219;32;33854;-82
2023/04/10 06:59:00;;;;;;;;;;;;;;;9.79;61.91;100275.78;4419239;32;34687;-84
2023/04/10 07:01:29;;;;;;;2.97;2.00;;;;;;;9.82;61.87;100271.44;4410436;32;33767;-83
2023/04/10 07:03:57;;;;;;;2.50;1.37;;;;;;;9.74;62.43;100280.97;4411978;32;35207;-86
2023/04/10 07:06:27;;;;;;;2.45;2.08;;;;;;;9.98;61.54;100269.72;4410012;32;33495;-83
2023/04/10 07:08:56;;;;;;;1.50;1.40;;;;;;;10.07;61.53;100279.19;4414550;32;33795;-81
2023/04/10 07:11:25;;;;;;;3.05;2.00;;;;;;;10.22;60.62;100275.69;4413386;32;33539;-82
2023/04/10 07:13:57;;;;;;;3.60;2.33;;;;;;;10.59;59.60;100268.72;4411019;32;32545;-82
2023/04/10 07:16:26;;;;;;;4.97;1.85;;;;;;;10.68;58.96;100273.88;4412796;32;33589;-83
2023/04/10 07:18:55;;;;;;;1.75;1.50;;;;;;;10.76;59.48;100276.44;4416153;32;33517;-83
2023/04/10 07:21:26;;;;;;;1.30;1.20;;;;;;;10.83;59.40;100277.28;4417043;32;34169;-86
2023/04/10 07:23:55;;;;;;;1.73;1.50;;;;;;;11.08;58.08;100275.41;4413271;32;32424;-83
2023/04/10 07:26:24;;;;;;;2.25;1.90;;;;;;;11.30;56.21;100269.19;4410591;32;34768;-82
2023/04/10 07:28:53;;;;;;;1.48;1.08;;;;;;;11.10;57.83;100274.50;4412074;32;34636;-84
2023/04/10 07:31:23;;;;;;;1.58;1.40;;;;;;;11.46;55.61;100269.09;4416292;32;33563;-83
2023/04/10 07:33:52;;;;;;;1.58;1.37;;;;;;;11.27;55.42;100271.81;4414158;32;32900;-83
2023/04/10 07:36:21;;;;;;;2.60;1.65;;;;;;;11.22;56.55;100273.56;4406127;32;33927;-82
2023/04/10 07:38:50;;;;;;;3.80;1.52;;;;;;;11.19;56.64;100276.19;4411868;32;33514;-84
2023/04/10 07:41:18;;;;;;;1.73;1.48;;;;;;;11.38;57.71;100274.34;4417670;32;33490;-83
2023/04/10 07:43:47;;;;;;;2.30;2.00;;;;;;;11.37;58.21;100272.59;4410760;32;33076;-83
2023/04/10 07:46:16;;;;;;;2.00;1.52;;;;;;;11.49;57.16;100269.91;4405486;32;33993;-82
2023/04/10 07:48:48;;;;;;;3.40;1.75;;;;;;;11.61;55.85;100270.69;4411950;32;33331;-83
2023/04/10 07:51:17;;;;;;;1.73;1.23;;;;;;;11.67;55.26;100268.94;4412300;32;33741;-86
2023/04/10 07:53:46;;;;;;;1.90;1.45;;;;;;;11.71;56.18;100256.75;4416993;32;33527;-84
2023/04/10 07:56:18;;;;;;;1.48;1.37;;;;;;;12.07;55.52;100250.37;4413396;32;34494;-83
2023/04/10 07:58:47;;;;;;;2.80;2.42;;;;;;;12.14;54.45;100252.03;4399257;32;33524;-85
2023/04/10 08:01:16;;;;;;;1.35;1.25;;;;;;;12.11;53.72;100249.47;4402730;32;33543;-83
2023/04/10 08:03:47;;;;;;;3.70;1.92;;;;;;;12.50;51.98;100249.88;4418112;32;33693;-85
2023/04/10 08:06:16;;;;;;;1.33;1.23;;;;;;;12.54;52.17;100250.69;4404122;32;33623;-83
2023/04/10 08:08:45;;;;;;;1.27;1.17;;;;;;;12.80;48.36;100238.22;4409215;32;34381;-83
2023/04/10 08:11:24;;;;;;;1.33;1.20;;;;;;;12.73;46.84;100233.13;4410671;32;33458;-84
2023/04/10 08:13:53;;;;;;;1.10;1.00;;;;;;;13.20;46.44;100242.88;4416085;32;34012;-85
2023/04/10 08:16:24;;;;;;;1.27;1.10;;;;;;;13.07;45.31;100236.13;4421174;32;33658;-84
2023/04/10 08:18:56;;;;;;;1.60;1.00;;;;;;;13.19;44.91;100235.94;4415874;32;33754;-86
2023/04/10 08:21:26;;;;;;;1.90;1.10;;;;;;;13.43;44.22;100231.25;4415766;32;34402;-86
2023/04/10 08:23:56;;;;;;;1.92;1.42;;;;;;;13.34;42.71;100236.63;4415599;32;35319;-84
2023/04/10 08:26:26;;;;;;;1.30;1.20;;;;;;;13.36;42.46;100233.13;4419226;32;34212;-83
2023/04/10 08:28:57;;;;;;;2.90;1.00;;;;;;;13.50;42.48;100240.69;4420432;32;33772;-83
2023/04/10 08:31:27;;;;;;;1.20;0.88;;;;;;;13.53;42.93;100224.13;4414791;32;33692;-86
2023/04/10 08:34:00;;;;;;;1.83;1.45;;;;;;;13.74;44.41;100226.38;4414298;32;34236;-83
2023/04/10 08:36:30;;;;;;;0.93;0.80;;;;;;;13.97;45.46;100238.16;4412785;32;34015;-84
2023/04/10 08:38:59;;;;;;;2.00;1.80;;;;;;;13.83;44.86;100215.78;4419470;32;35596;-85
2023/04/10 08:41:28;;;;;;;1.55;1.45;;;;;;;13.69;43.41;100225.59;4408305;32;34524;-85
2023/04/10 08:43:57;;;;;;;1.33;1.15;;;;;;;13.92;42.53;100222.59;4412655;32;31582;-85
2023/04/10 08:46:26;;;;;;;1.70;1.20;;;;;;;14.05;44.60;100220.59;4411081;32;34361;-84
2023/04/10 08:49:05;;;;;;;1.85;1.50;;;;;;;14.27;44.01;100216.69;4419217;32;33938;-88
2023/04/10 08:51:37;;;;;;;2.97;1.25;;;;;;;14.17;43.53;100219.50;4412248;32;33329;-83
2023/04/10 08:54:07;;;;;;;1.00;0.90;;;;;;;13.95;42.53;100230.34;4412950;32;33116;-83
2023/04/10 08:56:37;;;;;;;1.30;1.10;;;;;;;13.97;43.51;100230.34;4414227;32;32990;-85
2023/04/10 08:59:07;;;;;;;1.60;1.42;;;;;;;14.08;42.18;100218.78;4413420;32;33593;-85
2023/04/10 09:01:36;;;;;;;2.12;1.87;;;;;;;14.26;42.90;100222.81;4416122;32;34333;-83
2023/04/10 09:04:07;;;;;;;1.65;0.93;;;;;;;14.18;42.40;100218.62;4413366;32;32921;-83
2023/04/10 09:06:35;;;;;;;1.93;1.33;;;;;;;14.07;42.62;100221.44;4411290;32;33445;-84
2023/04/10 09:09:05;;;;;;;1.23;1.12;;;;;;;14.02;42.37;100218.91;4410252;32;33246;-84
2023/04/10 09:11:59;;;;;;;1.60;1.23;;;;;;;14.43;42.84;100217.25;4412218;32;32444;-86
2023/04/10 09:14:30;;;;;;;2.08;1.10;;;;;;;14.77;40.86;100215.72;4412921;32;33926;-87
2023/04/10 09:17:16;;;;;;;1.75;1.25;;;;;;;14.46;41.16;100211.94;4407584;32;34500;-84
2023/04/10 09:19:48;;;;;;;1.85;1.02;;;;;;;14.60;41.12;100206.47;4411871;32;34117;-85
2023/04/10 09:22:17;;;;;;;1.30;1.17;;;;;;;14.51;41.42;100201.41;4412197;32;34527;-84
2023/04/10 09:24:47;;;;;;;1.58;1.00;;;;;;;14.78;41.25;100199.13;4410924;32;33351;-85
2023/04/10 09:27:31;;;;;;;3.87;1.42;;;;;;;14.92;39.34;100208.38;4417294;32;33925;-84
2023/04/10 09:30:00;;;;;;;0.80;0.80;;;;;;;15.02;39.30;100200.31;4418311;32;33881;-84
2023/04/10 09:32:40;;;;;;;1.60;1.30;;;;;;;14.92;40.11;100202.28;4410234;32;33479;-83
2023/04/10 09:35:12;;;;;;;0.88;0.88;;;;;;;14.86;40.31;100200.69;4409866;32;33507;-85
2023/04/10 09:37:42;;;;;;;0.90;0.88;;;;;;;14.97;40.97;100199.56;4401981;32;34814;-86
2023/04/10 09:40:20;;;;;;;1.27;0.95;;;;;;;15.17;39.39;100199.09;4419320;32;33323;-85
2023/04/10 09:42:49;;;;;;;1.62;1.42;;;;;;;15.30;38.03;100193.56;4415880;32;33859;-84
2023/04/10 09:45:18;;;;;;;1.98;1.10;;;;;;;15.03;41.01;100189.84;4410802;32;33042;-83
2023/04/10 09:48:01;;;;;;;0.68;0.68;;;;;;;15.39;39.93;100186.37;4411355;32;33961;-84
2023/04/10 09:50:39;;;;;;;0.70;0.70;;;;;;;15.58;39.17;100187.62;4413304;32;33745;-85
2023/04/10 09:53:09;;;;;;;1.30;1.20;;;;;;;15.83;38.45;100182.66;4418868;32;33038;-86
2023/04/10 09:55:40;;;;;;;3.35;1.10;;;;;;;15.82;37.68;100182.66;4414156;32;34315;-86
2023/04/10 09:58:10;;;;;;;1.12;1.02;;;;;;;15.86;38.52;100171.25;4414728;32;33213;-85
2023/04/10 10:00:41;;;;;;;1.15;1.05;;;;;;;16.09;38.38;100173.19;4414450;32;35442;-85
2023/04/10 10:03:16;;;;;;;3.47;1.80;;;;;;;15.94;36.54;100166.63;4420158;32;33150;-86
2023/04/10 10:05:48;;;;;;;0.75;0.68;;;;;;;16.31;36.48;100165.59;4417188;32;33837;-85
2023/04/10 10:08:17;;;;;;;0.82;0.70;;;;;;;15.88;35.35;100166.81;4412042;32;33826;-86
2023/04/10 10:10:47;;;;;;;2.17;1.40;;;;;;;16.17;35.26;100169.47;4414417;32;33942;-87
2023/04/10 10:13:22;;;;;;;0.75;0.75;;;;;;;16.15;35.93;100165.19;4415422;32;33711;-85
2023/04/10 10:15:57;;;;;;;1.00;0.90;;;;;;;15.82;34.95;100159.13;4415514;32;34136;-84
2023/04/10 10:18:33;;;;;;;0.80;0.75;;;;;;;16.12;35.60;100158.28;4420358;32;34274;-85
2023/04/10 10:21:03;;;;;;;2.15;0.90;;;;;;;16.18;35.65;100149.37;4407676;32;34573;-84
2023/04/10 10:23:33;;;;;;;0.82;0.80;;;;;;;16.40;35.18;100153.09;4410302;32;34221;-85
2023/04/10 10:26:05;;;;;;;2.05;1.25;;;;;;;15.95;35.08;100148.28;4413949;32;33722;-84
2023/04/10 10:28:36;;;;;;;1.20;1.08;;;;;;;15.64;36.27;100148.22;4420072;32;33604;-86
2023/04/10 10:31:05;;;;;;;2.53;1.07;;;;;;;15.63;35.77;100148.25;4418323;32;33684;-85
2023/04/10 10:33:36;;;;;;;2.22;1.10;;;;;;;15.66;36.18;100145.59;4414800;32;34291;-84
2023/04/10 10:36:07;;;;;;;1.98;1.05;;;;;;;15.61;36.19;100143.09;4414784;32;33282;-86
2023/04/10 10:38:40;;;;;;;1.17;1.02;;;;;;;15.66;36.48;100148.22;4414987;32;34753;-84
2023/04/10 10:41:13;;;;;;;1.02;0.80;;;;;;;15.44;35.99;100155.72;4419325;32;34409;-83
2023/04/10 10:43:50;;;;;;;0.88;0.88;;;;;;;15.83;34.93;100150.41;4405031;32;34604;-84
2023/04/10 10:46:24;;;;;;;1.00;0.93;;;;;;;15.69;35.89;100145.50;4412498;32;33321;-84
2023/04/10 10:48:57;;;;;;;0.70;0.70;;;;;;;15.98;35.41;100152.59;4415146;32;33487;-86
2023/04/10 10:51:44;;;;;;;1.15;1.05;;;;;;;15.93;34.76;100144.00;4414509;32;33384;-86
2023/04/10 10:54:29;;;;;;;1.05;0.85;;;;;;;15.92;35.67;100147.50;4419437;32;33822;-83
2023/04/10 10:56:58;;;;;;;2.20;0.98;;;;;;;15.60;36.33;100145.75;4418790;32;34175;-88
2023/04/10 10:59:58;;;;;;;0.80;0.80;;;;;;;15.36;36.17;100143.72;4414762;32;34654;-83
2023/04/10 11:02:26;;;;;;;0.70;0.70;;;;;;;15.38;38.86;100150.69;4401063;32;34604;-84
2023/04/10 11:04:56;;;;;;;2.15;1.58;;;;;;;15.00;41.83;100160.31;4407940;32;34335;-86
2023/04/10 11:08:04;;;;;;;1.33;1.23;;;;;;;15.01;42.67;100157.66;4403094;32;32522;-84
2023/04/10 11:11:04;;;;;;;1.33;1.10;;;;;;;15.02;42.06;100162.00;4406805;32;33325;-84
2023/04/10 11:13:33;;;;;;;1.17;1.08;;;;;;;15.54;42.48;100152.84;4356314;32;33780;-84
2023/04/10 11:16:04;;;;;;;0.70;0.70;;;;;;;15.61;38.44;100142.22;4359847;32;33819;-83
2023/04/10 11:19:04;;;;;;;2.85;1.25;;;;;;;15.96;38.82;100141.28;4351392;32;34921;-86
2023/04/10 11:22:04;;;;;;;1.98;0.95;;;;;;;16.21;37.67;100138.81;4350588;32;32976;-84
2023/04/10 11:24:56;;;;;;;1.00;0.90;;;;;;;16.11;37.59;100135.63;4352960;32;34208;-83
2023/04/10 11:27:45;;;;;;;1.10;1.00;;;;;;;15.78;38.20;100130.44;4352842;32;33293;-85
2023/04/10 11:30:35;;;;;;;1.33;0.95;;;;;;;15.74;38.38;100128.81;4354059;32;34141;-84
2023/04/10 11:33:05;;;;;;;0.85;0.82;;;;;;;15.90;38.35;100121.41;4350831;32;34758;-83
2023/04/10 11:35:34;;;;;;;1.20;0.88;;;;;;;16.39;36.75;100119.97;4360142;32;33791;-83
2023/04/10 11:38:16;;;;;;;0.70;0.70;;;;;;;16.29;36.86;100130.75;4354888;32;33111;-84
2023/04/10 11:41:06;;;;;;;1.60;1.02;;;;;;;16.38;36.23;100126.13;4357473;32;31997;-84
2023/04/10 11:43:36;;;;;;;1.10;1.00;;;;;;;16.78;36.13;100124.91;4357450;32;33380;-83
2023/04/10 11:46:07;;;;;;;0.95;0.75;;;;;;;16.85;36.41;100128.19;4360521;32;34298;-86
2023/04/10 11:48:36;;;;;;;1.37;0.88;;;;;;;16.96;35.61;100136.56;4370622;32;33573;-85
2023/04/10 11:51:12;;;;;;;1.05;0.82;;;;;;;16.92;35.68;100124.47;4415095;32;32691;-86